createdAt,value
2023-09-29T00:01:05.462Z,17.00
2023-09-29T00:03:33.877Z,17.00
2023-09-29T00:06:02.108Z,17.00
2023-09-29T00:08:30.251Z,17.00
2023-09-29T00:10:58.388Z,17.00
2023-09-29T00:13:27.933Z,17.00
2023-09-29T00:15:55.964Z,17.00
2023-09-29T00:18:25.265Z,17.00
2023-09-29T00:20:53.532Z,17.00
2023-09-29T00:23:21.678Z,17.00
2023-09-29T00:25:49.943Z,17.00
2023-09-29T00:28:18.317Z,17.00
2023-09-29T00:30:47.929Z,17.00
2023-09-29T00:33:16.160Z,17.00
2023-09-29T00:35:44.457Z,17.00
2023-09-29T00:38:12.729Z,17.00
2023-09-29T00:40:40.824Z,17.00
2023-09-29T00:43:09.604Z,17.00
2023-09-29T00:45:38.219Z,16.90
2023-09-29T00:48:11.893Z,16.90
2023-09-29T00:50:41.314Z,16.90
2023-09-29T00:53:15.220Z,16.90
2023-09-29T00:55:46.644Z,16.90
2023-09-29T00:58:14.391Z,17.00
2023-09-29T01:00:43.442Z,17.00
2023-09-29T01:03:16.270Z,17.00
2023-09-29T01:05:46.343Z,17.00
2023-09-29T01:08:16.599Z,17.00
2023-09-29T01:10:45.633Z,17.10
2023-09-29T01:13:14.532Z,17.10
2023-09-29T01:15:42.874Z,17.10
2023-09-29T01:18:12.801Z,17.10
2023-09-29T01:20:42.160Z,17.20
2023-09-29T01:23:11.038Z,17.20
2023-09-29T01:25:41.372Z,17.20
2023-09-29T01:28:11.795Z,17.20
2023-09-29T01:30:42.192Z,17.20
2023-09-29T01:33:10.527Z,17.20
2023-09-29T01:35:41.144Z,17.20
2023-09-29T01:38:09.480Z,17.20
2023-09-29T01:40:37.619Z,17.20
2023-09-29T01:43:07.661Z,17.20
2023-09-29T01:45:35.880Z,17.20
2023-09-29T01:48:04.092Z,17.20
2023-09-29T01:50:34.327Z,17.20
2023-09-29T01:53:03.423Z,17.20
2023-09-29T01:55:31.716Z,17.20
2023-09-29T01:58:00.288Z,17.20
2023-09-29T02:00:30.750Z,17.30
2023-09-29T02:03:00.638Z,17.30
2023-09-29T02:05:28.992Z,17.30
2023-09-29T02:07:59.203Z,17.30
2023-09-29T02:10:29.173Z,17.30
2023-09-29T02:12:59.162Z,17.30
2023-09-29T02:15:30.268Z,17.30
2023-09-29T02:17:59.647Z,17.30
2023-09-29T02:20:31.491Z,17.30
2023-09-29T02:23:01.043Z,17.30
2023-09-29T02:25:30.951Z,17.30
2023-09-29T02:28:00.795Z,17.30
2023-09-29T02:30:31.491Z,17.30
2023-09-29T02:32:59.785Z,17.30
2023-09-29T02:35:28.170Z,17.30
2023-09-29T02:37:57.181Z,17.30
2023-09-29T02:40:25.607Z,17.30
2023-09-29T02:42:55.318Z,17.30
2023-09-29T02:45:24.414Z,17.30
2023-09-29T02:47:54.564Z,17.30
2023-09-29T02:50:22.982Z,17.30
2023-09-29T02:52:51.155Z,17.30
2023-09-29T02:55:19.399Z,17.30
2023-09-29T02:57:48.141Z,17.40
2023-09-29T03:00:20.906Z,17.40
2023-09-29T03:02:49.414Z,17.40
2023-09-29T03:05:22.390Z,17.40
2023-09-29T03:07:53.102Z,17.40
2023-09-29T03:10:24.563Z,17.40
2023-09-29T03:12:52.626Z,17.50
2023-09-29T03:15:22.496Z,17.50
2023-09-29T03:17:50.905Z,17.50
2023-09-29T03:20:20.800Z,17.40
2023-09-29T03:22:49.312Z,17.40
2023-09-29T03:25:19.753Z,17.40
2023-09-29T03:27:49.155Z,17.40
2023-09-29T03:30:17.744Z,17.40
2023-09-29T03:32:46.463Z,17.40
2023-09-29T03:35:15.828Z,17.40
2023-09-29T03:37:46.601Z,17.40
2023-09-29T03:40:15.704Z,17.40
2023-09-29T03:42:44.008Z,17.40
2023-09-29T03:45:13.902Z,17.40
2023-09-29T03:47:42.893Z,17.40
2023-09-29T03:50:13.552Z,17.40
2023-09-29T03:52:43.652Z,17.40
2023-09-29T03:55:15.905Z,17.40
2023-09-29T03:57:45.844Z,17.40
2023-09-29T04:00:19.232Z,17.30
2023-09-29T04:02:51.494Z,17.40
2023-09-29T04:05:20.199Z,17.30
2023-09-29T04:07:49.463Z,17.30
2023-09-29T04:10:21.233Z,17.30
2023-09-29T04:12:49.584Z,17.40
2023-09-29T04:15:18.464Z,17.40
2023-09-29T04:17:46.953Z,17.40
2023-09-29T04:20:16.933Z,17.40
2023-09-29T04:22:45.058Z,17.40
2023-09-29T04:25:13.210Z,17.40
2023-09-29T04:27:43.000Z,17.40
2023-09-29T04:30:13.748Z,17.40
2023-09-29T04:32:42.455Z,17.40
2023-09-29T04:35:11.360Z,17.40
2023-09-29T04:37:39.805Z,17.30
2023-09-29T04:40:09.478Z,17.30
2023-09-29T04:42:38.007Z,17.40
2023-09-29T04:45:09.371Z,17.30
2023-09-29T04:47:39.541Z,17.40
2023-09-29T04:50:10.288Z,17.30
2023-09-29T04:52:43.472Z,17.30
2023-09-29T04:55:11.952Z,17.30
2023-09-29T04:57:39.989Z,17.30
2023-09-29T05:00:10.822Z,17.40
2023-09-29T05:02:39.194Z,17.40
2023-09-29T05:05:08.742Z,17.40
2023-09-29T05:07:36.894Z,17.40
2023-09-29T05:10:05.672Z,17.40
2023-09-29T05:12:35.362Z,17.40
2023-09-29T05:15:03.829Z,17.40
2023-09-29T05:17:50.216Z,17.40
2023-09-29T05:20:20.061Z,17.40
2023-09-29T05:22:48.157Z,17.40
2023-09-29T05:25:16.317Z,17.40
2023-09-29T05:27:44.375Z,17.40
2023-09-29T05:30:20.167Z,17.40
2023-09-29T05:32:49.787Z,17.50
2023-09-29T05:35:22.385Z,17.50
2023-09-29T05:37:51.539Z,17.50
2023-09-29T05:43:05.502Z,17.50
2023-09-29T05:45:33.620Z,17.50
2023-09-29T05:48:03.136Z,17.60
2023-09-29T05:50:46.823Z,17.50
2023-09-29T05:53:16.370Z,17.60
2023-09-29T05:58:28.586Z,17.60
2023-09-29T06:00:57.768Z,17.60
2023-09-29T06:03:29.794Z,17.60
2023-09-29T06:05:58.674Z,17.60
2023-09-29T06:08:30.356Z,17.60
2023-09-29T06:11:05.392Z,17.60
2023-09-29T06:13:33.998Z,17.60
2023-09-29T06:16:06.050Z,17.60
2023-09-29T06:18:36.083Z,17.60
2023-09-29T06:21:06.130Z,17.60
2023-09-29T06:23:34.363Z,17.60
2023-09-29T06:26:06.219Z,17.60
2023-09-29T06:28:34.341Z,17.60
2023-09-29T06:31:07.289Z,17.70
2023-09-29T06:33:36.988Z,17.70
2023-09-29T06:36:06.078Z,17.70
2023-09-29T06:38:34.194Z,17.70
2023-09-29T06:41:05.542Z,17.70
2023-09-29T06:43:33.545Z,17.70
2023-09-29T06:46:04.436Z,17.70
2023-09-29T06:48:33.324Z,17.70
2023-09-29T06:51:06.373Z,17.80
2023-09-29T06:53:34.762Z,17.80
2023-09-29T06:56:05.709Z,17.80
2023-09-29T06:58:33.757Z,17.90
2023-09-29T07:01:07.607Z,17.90
2023-09-29T07:03:37.015Z,17.90
2023-09-29T07:06:07.230Z,18.00
2023-09-29T07:08:35.472Z,18.00
2023-09-29T07:11:05.574Z,18.00
2023-09-29T07:13:33.684Z,18.10
2023-09-29T07:16:05.679Z,18.10
2023-09-29T07:18:34.300Z,18.20
2023-09-29T07:21:05.352Z,18.20
2023-09-29T07:23:36.026Z,18.20
2023-09-29T07:26:05.045Z,18.20
2023-09-29T07:28:34.517Z,18.30
2023-09-29T07:31:04.846Z,18.30
2023-09-29T07:33:33.299Z,18.30
2023-09-29T07:36:06.831Z,18.40
2023-09-29T07:38:36.533Z,18.40
2023-09-29T07:41:06.419Z,18.40
2023-09-29T07:43:35.073Z,18.40
2023-09-29T07:46:05.246Z,18.40
2023-09-29T07:48:33.596Z,18.50
2023-09-29T07:51:05.391Z,18.50
2023-09-29T07:53:33.816Z,18.50
2023-09-29T07:56:07.182Z,18.60
2023-09-29T07:58:35.294Z,18.70
2023-09-29T08:01:05.301Z,18.70
2023-09-29T08:03:34.189Z,18.80
2023-09-29T08:06:05.538Z,18.80
2023-09-29T08:08:33.992Z,18.90
2023-09-29T08:11:11.422Z,18.90
2023-09-29T08:13:39.602Z,19.00
2023-09-29T08:16:08.902Z,19.00
2023-09-29T08:18:37.057Z,19.00
2023-09-29T08:21:05.603Z,19.10
2023-09-29T08:23:33.729Z,19.20
2023-09-29T08:26:07.073Z,19.20
2023-09-29T08:28:35.114Z,19.30
2023-09-29T08:31:04.755Z,19.30
2023-09-29T08:33:44.127Z,19.30
2023-09-29T08:36:18.404Z,19.30
2023-09-29T08:38:46.796Z,19.30
2023-09-29T08:41:17.780Z,19.30
2023-09-29T08:43:55.929Z,19.30
2023-09-29T08:46:36.843Z,19.30
2023-09-29T08:49:06.298Z,19.30
2023-09-29T08:51:35.413Z,19.30
2023-09-29T08:54:05.326Z,19.30
2023-09-29T08:56:36.402Z,19.30
2023-09-29T08:59:05.105Z,19.30
2023-09-29T09:01:33.533Z,19.30
2023-09-29T09:04:02.203Z,19.30
2023-09-29T09:06:31.888Z,19.30
2023-09-29T09:09:00.063Z,19.30
2023-09-29T09:11:29.334Z,19.30
2023-09-29T09:14:04.794Z,19.40
2023-09-29T09:16:34.136Z,19.40
2023-09-29T09:19:10.896Z,19.50
2023-09-29T09:21:39.332Z,19.50
2023-09-29T09:24:19.092Z,19.50
2023-09-29T09:26:48.276Z,19.50
2023-09-29T09:29:18.573Z,19.60
2023-09-29T09:31:48.550Z,19.60
2023-09-29T09:34:16.685Z,19.60
2023-09-29T09:36:51.758Z,19.70
2023-09-29T09:39:25.030Z,19.70
2023-09-29T09:41:55.001Z,19.80
2023-09-29T09:44:25.211Z,19.90
2023-09-29T09:47:01.715Z,20.00
2023-09-29T09:49:39.769Z,20.10
2023-09-29T09:52:10.145Z,20.20
2023-09-29T09:54:45.753Z,20.20
2023-09-29T09:57:17.022Z,20.20
2023-09-29T10:43:10.228Z,20.10
2023-09-29T10:49:53.901Z,20.00
2023-09-29T10:52:24.639Z,19.80
2023-09-29T10:54:58.180Z,19.80
2023-09-29T10:57:28.001Z,19.70
2023-09-29T11:00:01.649Z,19.70
2023-09-29T11:02:32.159Z,19.70
2023-09-29T11:05:03.719Z,19.70
2023-09-29T11:07:31.748Z,19.70
2023-09-29T11:10:00.891Z,19.70
2023-09-29T11:12:31.576Z,19.70
2023-09-29T11:15:11.003Z,19.60
2023-09-29T11:18:02.227Z,19.60
2023-09-29T11:28:14.476Z,19.50
2023-09-29T11:30:49.968Z,19.30
2023-09-29T11:33:20.972Z,19.10
2023-09-29T11:36:28.821Z,19.00
2023-09-29T11:39:02.808Z,18.90
2023-09-29T11:41:39.662Z,18.80
2023-09-29T11:44:08.557Z,18.80
2023-09-29T11:47:03.756Z,18.70
2023-09-29T11:49:31.968Z,18.70
2023-09-29T11:52:00.079Z,18.70
2023-09-29T11:54:28.494Z,18.70
2023-09-29T11:56:56.905Z,18.60
2023-09-29T11:59:25.181Z,18.60
2023-09-29T12:01:53.457Z,18.70
2023-09-29T12:04:23.094Z,18.60
2023-09-29T12:06:51.195Z,18.60
2023-09-29T12:09:19.713Z,18.50
2023-09-29T12:11:47.954Z,18.50
2023-09-29T12:14:16.038Z,18.50
2023-09-29T12:16:44.944Z,18.50
2023-09-29T12:19:14.138Z,18.50
2023-09-29T12:21:43.800Z,18.50
2023-09-29T12:24:12.144Z,18.40
2023-09-29T12:26:40.573Z,18.50
2023-09-29T12:29:08.699Z,18.50
2023-09-29T12:31:37.428Z,18.50
2023-09-29T12:34:06.677Z,18.40
2023-09-29T12:36:35.940Z,18.40
2023-09-29T12:39:09.375Z,18.30
2023-09-29T12:41:39.224Z,18.30
2023-09-29T12:44:08.080Z,18.30
2023-09-29T12:46:37.309Z,18.30
2023-09-29T12:49:08.840Z,18.30
2023-09-29T12:51:49.745Z,18.30
2023-09-29T12:54:28.145Z,18.40
2023-09-29T12:57:02.598Z,18.40
2023-09-29T12:59:34.767Z,18.40
2023-09-29T13:02:04.125Z,18.30
2023-09-29T13:04:32.805Z,18.30
2023-09-29T13:07:02.300Z,18.40
2023-09-29T13:09:33.922Z,18.40
2023-09-29T13:12:04.786Z,18.40
2023-09-29T13:14:35.344Z,18.40
2023-09-29T13:17:05.962Z,18.50
2023-09-29T13:19:34.833Z,18.50
2023-09-29T13:22:03.611Z,18.40
2023-09-29T13:24:34.109Z,18.40
2023-09-29T13:27:03.994Z,18.40
2023-09-29T13:29:34.845Z,18.30
2023-09-29T13:32:03.339Z,18.30
2023-09-29T13:34:33.322Z,18.30
2023-09-29T13:37:02.535Z,18.30
2023-09-29T13:39:32.883Z,18.30
2023-09-29T13:42:01.825Z,18.30
2023-09-29T13:44:30.069Z,18.30
2023-09-29T13:47:04.446Z,18.30
2023-09-29T13:49:33.846Z,18.30
2023-09-29T13:52:02.398Z,18.40
2023-09-29T13:54:32.327Z,18.40
2023-09-29T13:57:00.992Z,18.40
2023-09-29T13:59:29.694Z,18.50
2023-09-29T14:01:57.773Z,18.50
2023-09-29T14:04:25.989Z,18.50
2023-09-29T14:06:55.865Z,18.50
2023-09-29T14:09:24.173Z,18.50
2023-09-29T14:11:53.946Z,18.50
2023-09-29T14:14:22.666Z,18.50
2023-09-29T14:16:50.852Z,18.50
2023-09-29T14:19:18.893Z,18.50
2023-09-29T14:21:48.818Z,18.50
2023-09-29T14:24:19.875Z,18.50
2023-09-29T14:26:48.503Z,18.50
2023-09-29T14:29:18.925Z,18.70
2023-09-29T14:31:47.557Z,18.70
2023-09-29T14:34:16.887Z,18.70
2023-09-29T14:36:45.902Z,18.60
2023-09-29T14:39:16.522Z,18.60
2023-09-29T14:41:45.954Z,18.60
2023-09-29T14:44:16.444Z,18.50
2023-09-29T14:46:47.004Z,18.50
2023-09-29T14:49:16.796Z,18.40
2023-09-29T14:51:47.403Z,18.40
2023-09-29T14:54:16.193Z,18.40
2023-09-29T14:56:44.831Z,18.30
2023-09-29T14:59:15.366Z,18.40
2023-09-29T15:01:49.022Z,18.40
2023-09-29T15:04:18.030Z,18.40
2023-09-29T15:06:50.133Z,18.40
2023-09-29T15:09:19.093Z,18.40
2023-09-29T15:11:47.843Z,18.40
2023-09-29T15:14:16.172Z,18.50
2023-09-29T15:16:47.075Z,18.70
2023-09-29T15:19:19.083Z,19.00
2023-09-29T15:21:47.287Z,19.00
2023-09-29T15:24:16.632Z,18.80
2023-09-29T15:26:44.905Z,18.70
2023-09-29T15:29:17.383Z,18.60
2023-09-29T15:31:49.289Z,18.60
2023-09-29T15:34:17.744Z,18.50
2023-09-29T15:36:46.492Z,18.50
2023-09-29T15:39:15.287Z,18.70
2023-09-29T15:41:45.169Z,19.00
2023-09-29T15:44:14.308Z,19.30
2023-09-29T15:46:44.314Z,19.50
2023-09-29T15:49:15.583Z,19.50
2023-09-29T15:51:44.701Z,19.30
2023-09-29T15:54:13.490Z,19.00
2023-09-29T15:56:42.166Z,18.80
2023-09-29T15:59:10.883Z,18.60
2023-09-29T16:01:39.425Z,18.40
2023-09-29T16:04:08.399Z,18.30
2023-09-29T16:06:38.886Z,18.20
2023-09-29T16:09:07.760Z,18.10
2023-09-29T16:11:35.928Z,18.00
2023-09-29T16:14:04.381Z,17.90
2023-09-29T16:16:33.837Z,17.90
2023-09-29T16:19:02.700Z,17.80
2023-09-29T16:21:30.982Z,17.80
2023-09-29T16:24:01.202Z,17.70
2023-09-29T16:26:29.578Z,17.70
2023-09-29T16:28:58.195Z,17.60
2023-09-29T16:31:29.787Z,17.60
2023-09-29T16:33:58.998Z,17.60
2023-09-29T16:36:28.084Z,17.60
2023-09-29T16:38:56.655Z,17.50
2023-09-29T16:41:28.074Z,17.50
2023-09-29T16:43:57.145Z,17.40
2023-09-29T16:46:27.586Z,17.40
2023-09-29T16:48:56.443Z,17.40
2023-09-29T16:51:27.938Z,17.40
2023-09-29T16:53:58.223Z,17.30
2023-09-29T16:56:30.684Z,17.30
2023-09-29T16:58:59.028Z,17.30
2023-09-29T17:01:27.324Z,17.30
2023-09-29T17:03:56.733Z,17.20
2023-09-29T17:06:25.443Z,17.20
2023-09-29T17:08:53.659Z,17.20
2023-09-29T17:11:21.750Z,17.20
2023-09-29T17:13:51.430Z,17.10
2023-09-29T17:16:19.508Z,17.10
2023-09-29T17:18:47.691Z,17.10
2023-09-29T17:21:16.934Z,17.10
2023-09-29T17:23:46.401Z,17.00
2023-09-29T17:26:15.088Z,17.00
2023-09-29T17:28:43.715Z,17.00
2023-09-29T17:31:13.533Z,17.00
2023-09-29T17:33:42.271Z,17.00
2023-09-29T17:36:11.473Z,16.90
2023-09-29T17:38:41.884Z,16.90
2023-09-29T17:41:11.807Z,16.90
2023-09-29T17:43:40.564Z,16.90
2023-09-29T17:46:10.448Z,16.90
2023-09-29T17:48:44.111Z,16.80
2023-09-29T17:51:14.202Z,16.80
2023-09-29T17:53:42.865Z,16.70
2023-09-29T17:56:13.712Z,16.70
2023-09-29T17:58:42.622Z,16.70
2023-09-29T18:01:12.699Z,16.70
2023-09-29T18:03:44.736Z,16.70
2023-09-29T18:06:14.983Z,16.70
2023-09-29T18:08:43.900Z,16.70
2023-09-29T18:11:18.420Z,16.60
2023-09-29T18:13:47.546Z,16.60
2023-09-29T18:16:16.603Z,16.60
2023-09-29T18:18:46.829Z,16.60
2023-09-29T18:21:15.226Z,16.60
2023-09-29T18:23:44.731Z,16.60
2023-09-29T18:26:13.327Z,16.60
2023-09-29T18:28:41.861Z,16.60
2023-09-29T18:31:11.553Z,16.60
2023-09-29T18:33:40.573Z,16.50
2023-09-29T18:36:10.326Z,16.50
2023-09-29T18:38:38.878Z,16.50
2023-09-29T18:41:07.537Z,16.50
2023-09-29T18:43:35.876Z,16.50
2023-09-29T18:46:06.162Z,16.40
2023-09-29T18:48:34.857Z,16.40
2023-09-29T18:51:05.073Z,16.40
2023-09-29T18:53:34.557Z,16.40
2023-09-29T18:56:03.459Z,16.40
2023-09-29T18:58:32.089Z,16.40
2023-09-29T19:01:00.311Z,16.30
2023-09-29T19:03:28.957Z,16.20
2023-09-29T19:06:02.185Z,16.20
2023-09-29T19:08:31.097Z,16.10
2023-09-29T19:11:01.992Z,16.00
2023-09-29T19:13:30.391Z,16.00
2023-09-29T19:15:59.862Z,15.90
2023-09-29T19:18:28.744Z,15.80
2023-09-29T19:20:57.040Z,15.80
2023-09-29T19:23:25.609Z,15.70
2023-09-29T19:25:53.894Z,15.60
2023-09-29T19:28:23.702Z,15.50
2023-09-29T19:30:51.844Z,15.50
2023-09-29T19:33:20.792Z,15.40
2023-09-29T19:35:49.429Z,15.40
2023-09-29T19:38:19.148Z,15.30
2023-09-29T19:40:47.674Z,15.30
2023-09-29T19:43:20.144Z,15.20
2023-09-29T19:45:50.727Z,15.20
2023-09-29T19:48:20.005Z,15.20
2023-09-29T19:50:48.421Z,15.20
2023-09-29T19:53:19.411Z,15.30
2023-09-29T19:55:50.522Z,15.30
2023-09-29T19:58:18.621Z,15.30
2023-09-29T20:00:46.830Z,15.30
2023-09-29T20:03:16.800Z,15.30
2023-09-29T20:05:46.658Z,15.30
2023-09-29T20:08:15.451Z,15.30
2023-09-29T20:10:44.583Z,15.20
2023-09-29T20:13:13.355Z,15.20
2023-09-29T20:15:41.913Z,15.10
2023-09-29T20:18:10.427Z,15.00
2023-09-29T20:20:40.358Z,15.00
2023-09-29T20:23:10.472Z,14.90
2023-09-29T20:25:40.694Z,14.90
2023-09-29T20:28:14.197Z,14.90
2023-09-29T20:30:44.277Z,14.80
2023-09-29T20:33:16.269Z,14.80
2023-09-29T20:35:45.822Z,14.80
2023-09-29T20:38:14.398Z,14.80
2023-09-29T20:40:43.715Z,14.70
2023-09-29T20:43:16.411Z,14.70
2023-09-29T20:45:47.362Z,14.60
2023-09-29T20:48:17.327Z,14.60
2023-09-29T20:50:48.123Z,14.60
2023-09-29T20:53:16.618Z,14.50
2023-09-29T20:55:45.107Z,14.50
2023-09-29T20:58:13.685Z,14.50
2023-09-29T21:00:42.455Z,14.50
2023-09-29T21:03:11.048Z,14.50
2023-09-29T21:05:39.633Z,14.50
2023-09-29T21:08:09.612Z,14.50
2023-09-29T21:10:38.364Z,14.50
2023-09-29T21:13:08.249Z,14.50
2023-09-29T21:15:37.758Z,14.40
2023-09-29T21:18:07.371Z,14.30
2023-09-29T21:20:36.106Z,14.30
2023-09-29T21:23:26.383Z,14.30
2023-09-29T21:25:54.977Z,14.20
2023-09-29T21:28:23.615Z,14.20
2023-09-29T21:30:51.862Z,14.20
2023-09-29T21:33:20.376Z,14.20
2023-09-29T21:35:48.800Z,14.10
2023-09-29T21:38:19.294Z,14.10
2023-09-29T21:40:48.039Z,14.10
2023-09-29T21:43:16.244Z,14.10
2023-09-29T21:45:44.619Z,14.10
2023-09-29T21:48:15.445Z,14.00
2023-09-29T21:50:43.578Z,14.00
2023-09-29T21:53:11.691Z,14.00
2023-09-29T21:55:41.420Z,14.00
2023-09-29T21:58:09.615Z,13.90
2023-09-29T22:00:40.580Z,14.00
2023-09-29T22:03:10.190Z,14.00
2023-09-29T22:05:39.556Z,14.00
2023-09-29T22:08:08.717Z,14.10
2023-09-29T22:10:38.227Z,14.10
2023-09-29T22:13:08.247Z,14.10
2023-09-29T22:15:36.994Z,14.00
2023-09-29T22:18:06.488Z,14.00
2023-09-29T22:20:34.971Z,14.00
2023-09-29T22:23:03.241Z,13.90
2023-09-29T22:25:31.630Z,13.90
2023-09-29T22:28:00.511Z,13.90
2023-09-29T22:30:30.055Z,13.80
2023-09-29T22:32:58.304Z,13.80
2023-09-29T22:35:26.438Z,13.70
2023-09-29T22:37:54.499Z,13.70
2023-09-29T22:40:22.698Z,13.70
2023-09-29T22:42:51.202Z,13.70
2023-09-29T22:45:27.851Z,13.70
2023-09-29T22:47:57.576Z,13.60
2023-09-29T22:50:26.035Z,13.70
2023-09-29T22:52:56.911Z,13.70
2023-09-29T22:55:25.247Z,13.70
2023-09-29T22:57:53.330Z,13.70
2023-09-29T23:00:24.390Z,13.60
2023-09-29T23:02:53.849Z,13.60
2023-09-29T23:05:23.653Z,13.70
2023-09-29T23:07:51.788Z,13.70
2023-09-29T23:10:20.578Z,13.70
2023-09-29T23:12:50.136Z,13.70
2023-09-29T23:15:19.876Z,13.70
2023-09-29T23:17:48.002Z,13.70
2023-09-29T23:20:18.425Z,13.70
2023-09-29T23:22:48.045Z,13.70
2023-09-29T23:25:16.382Z,13.60
2023-09-29T23:27:44.681Z,13.60
2023-09-29T23:30:14.812Z,13.60
2023-09-29T23:32:43.107Z,13.70
2023-09-29T23:35:11.439Z,13.70
2023-09-29T23:37:40.126Z,13.70
2023-09-29T23:40:11.037Z,13.70
2023-09-29T23:42:39.215Z,13.70
2023-09-29T23:45:08.868Z,13.70
2023-09-29T23:47:37.091Z,13.60
2023-09-29T23:50:05.871Z,13.60
2023-09-29T23:52:34.196Z,13.60
2023-09-29T23:55:02.462Z,13.50
2023-09-29T23:57:32.193Z,13.50
